sensor_id;sensor_type;location;lat;lon;timestamp;P1;durP1;ratioP1;P2;durP2;ratioP2
39698;SDS011;25372;50.582;12.250;2023-03-03T00:01:48;38.70;;;11.73;;
39698;SDS011;25372;50.582;12.250;2023-03-03T00:12:16;37.85;;;13.38;;
39698;SDS011;25372;50.582;12.250;2023-03-03T00:22:41;29.23;;;10.70;;
39698;SDS011;25372;50.582;12.250;2023-03-03T00:33:02;37.58;;;11.90;;
39698;SDS011;25372;50.582;12.250;2023-03-03T00:43:39;33.10;;;13.45;;
39698;SDS011;25372;50.582;12.250;2023-03-03T00:54:00;40.50;;;12.30;;
39698;SDS011;25372;50.582;12.250;2023-03-03T01:04:22;50.10;;;13.27;;
39698;SDS011;25372;50.582;12.250;2023-03-03T01:14:43;31.08;;;12.48;;
39698;SDS011;25372;50.582;12.250;2023-03-03T01:25:07;20.67;;;8.25;;
39698;SDS011;25372;50.582;12.250;2023-03-03T01:35:31;26.42;;;10.88;;
39698;SDS011;25372;50.582;12.250;2023-03-03T01:56:51;28.33;;;11.68;;
39698;SDS011;25372;50.582;12.250;2023-03-03T02:07:16;25.02;;;9.85;;
39698;SDS011;25372;50.582;12.250;2023-03-03T02:17:40;19.27;;;9.40;;
39698;SDS011;25372;50.582;12.250;2023-03-03T02:28:03;34.17;;;12.17;;
39698;SDS011;25372;50.582;12.250;2023-03-03T02:38:24;30.20;;;10.47;;
39698;SDS011;25372;50.582;12.250;2023-03-03T02:48:49;33.38;;;8.73;;
39698;SDS011;25372;50.582;12.250;2023-03-03T02:59:10;24.17;;;10.35;;
39698;SDS011;25372;50.582;12.250;2023-03-03T03:09:37;25.10;;;10.18;;
39698;SDS011;25372;50.582;12.250;2023-03-03T03:19:58;39.80;;;12.47;;
39698;SDS011;25372;50.582;12.250;2023-03-03T03:30:21;23.20;;;9.95;;
39698;SDS011;25372;50.582;12.250;2023-03-03T03:40:43;41.35;;;12.48;;
39698;SDS011;25372;50.582;12.250;2023-03-03T03:51:05;22.15;;;8.75;;
39698;SDS011;25372;50.582;12.250;2023-03-03T04:01:27;21.45;;;9.07;;
39698;SDS011;25372;50.582;12.250;2023-03-03T04:11:51;40.05;;;9.30;;
39698;SDS011;25372;50.582;12.250;2023-03-03T04:22:13;24.30;;;8.20;;
39698;SDS011;25372;50.582;12.250;2023-03-03T04:32:35;31.52;;;9.82;;
39698;SDS011;25372;50.582;12.250;2023-03-03T04:42:59;17.23;;;4.00;;
39698;SDS011;25372;50.582;12.250;2023-03-03T04:53:22;20.08;;;8.30;;
39698;SDS011;25372;50.582;12.250;2023-03-03T05:03:43;26.33;;;8.30;;
39698;SDS011;25372;50.582;12.250;2023-03-03T05:14:06;29.40;;;9.63;;
39698;SDS011;25372;50.582;12.250;2023-03-03T05:24:27;29.30;;;10.30;;
39698;SDS011;25372;50.582;12.250;2023-03-03T05:34:49;21.77;;;9.27;;
39698;SDS011;25372;50.582;12.250;2023-03-03T05:45:11;25.37;;;10.20;;
39698;SDS011;25372;50.582;12.250;2023-03-03T05:55:33;23.05;;;8.43;;
39698;SDS011;25372;50.582;12.250;2023-03-03T06:05:54;22.30;;;8.23;;
39698;SDS011;25372;50.582;12.250;2023-03-03T06:16:16;24.73;;;8.85;;
39698;SDS011;25372;50.582;12.250;2023-03-03T06:26:37;29.25;;;8.43;;
39698;SDS011;25372;50.582;12.250;2023-03-03T06:36:59;29.10;;;9.90;;
39698;SDS011;25372;50.582;12.250;2023-03-03T06:47:20;28.30;;;14.83;;
39698;SDS011;25372;50.582;12.250;2023-03-03T06:57:42;23.48;;;8.73;;
39698;SDS011;25372;50.582;12.250;2023-03-03T07:08:05;17.58;;;6.85;;
39698;SDS011;25372;50.582;12.250;2023-03-03T07:18:32;23.42;;;6.78;;
39698;SDS011;25372;50.582;12.250;2023-03-03T07:28:57;22.02;;;7.40;;
39698;SDS011;25372;50.582;12.250;2023-03-03T07:39:29;23.57;;;9.33;;
39698;SDS011;25372;50.582;12.250;2023-03-03T07:49:53;17.73;;;7.63;;
39698;SDS011;25372;50.582;12.250;2023-03-03T08:11:10;16.77;;;6.25;;
39698;SDS011;25372;50.582;12.250;2023-03-03T08:21:30;10.75;;;4.07;;
39698;SDS011;25372;50.582;12.250;2023-03-03T08:31:54;18.70;;;6.77;;
39698;SDS011;25372;50.582;12.250;2023-03-03T08:42:15;14.40;;;6.03;;
39698;SDS011;25372;50.582;12.250;2023-03-03T08:52:38;18.15;;;6.93;;
39698;SDS011;25372;50.582;12.250;2023-03-03T09:02:59;15.40;;;6.00;;
39698;SDS011;25372;50.582;12.250;2023-03-03T09:13:21;17.65;;;5.97;;
39698;SDS011;25372;50.582;12.250;2023-03-03T09:23:42;13.32;;;5.18;;
39698;SDS011;25372;50.582;12.250;2023-03-03T09:34:15;15.07;;;5.28;;
39698;SDS011;25372;50.582;12.250;2023-03-03T09:44:52;12.77;;;4.30;;
39698;SDS011;25372;50.582;12.250;2023-03-03T09:55:32;7.00;;;3.88;;
39698;SDS011;25372;50.582;12.250;2023-03-03T10:06:00;9.98;;;3.40;;
39698;SDS011;25372;50.582;12.250;2023-03-03T10:16:35;7.82;;;3.42;;
39698;SDS011;25372;50.582;12.250;2023-03-03T10:27:09;4.90;;;3.00;;
39698;SDS011;25372;50.582;12.250;2023-03-03T10:37:46;6.80;;;2.53;;
39698;SDS011;25372;50.582;12.250;2023-03-03T10:48:18;5.88;;;2.42;;
39698;SDS011;25372;50.582;12.250;2023-03-03T10:58:54;7.18;;;2.85;;
39698;SDS011;25372;50.582;12.250;2023-03-03T11:09:28;7.40;;;2.10;;
39698;SDS011;25372;50.582;12.250;2023-03-03T11:20:00;3.25;;;2.17;;
39698;SDS011;25372;50.582;12.250;2023-03-03T11:30:30;10.70;;;3.20;;
39698;SDS011;25372;50.582;12.250;2023-03-03T11:41:02;4.43;;;2.38;;
39698;SDS011;25372;50.582;12.250;2023-03-03T11:51:31;4.03;;;2.00;;
39698;SDS011;25372;50.582;12.250;2023-03-03T12:02:04;8.10;;;2.87;;
39698;SDS011;25372;50.582;12.250;2023-03-03T12:12:39;11.60;;;2.95;;
39698;SDS011;25372;50.582;12.250;2023-03-03T12:23:07;4.25;;;2.38;;
39698;SDS011;25372;50.582;12.250;2023-03-03T12:33:38;9.43;;;2.20;;
39698;SDS011;25372;50.582;12.250;2023-03-03T12:44:15;3.40;;;2.00;;
39698;SDS011;25372;50.582;12.250;2023-03-03T12:54:48;3.63;;;1.73;;
39698;SDS011;25372;50.582;12.250;2023-03-03T13:05:19;3.92;;;2.30;;
39698;SDS011;25372;50.582;12.250;2023-03-03T13:15:46;3.47;;;2.28;;
39698;SDS011;25372;50.582;12.250;2023-03-03T13:26:19;4.50;;;2.20;;
39698;SDS011;25372;50.582;12.250;2023-03-03T13:36:47;10.02;;;2.50;;
39698;SDS011;25372;50.582;12.250;2023-03-03T13:47:15;8.38;;;3.08;;
39698;SDS011;25372;50.582;12.250;2023-03-03T13:57:43;6.45;;;2.83;;
39698;SDS011;25372;50.582;12.250;2023-03-03T14:08:13;6.13;;;2.95;;
39698;SDS011;25372;50.582;12.250;2023-03-03T14:18:44;5.90;;;2.53;;
39698;SDS011;25372;50.582;12.250;2023-03-03T14:29:23;6.82;;;2.78;;
39698;SDS011;25372;50.582;12.250;2023-03-03T14:39:59;14.70;;;4.65;;
39698;SDS011;25372;50.582;12.250;2023-03-03T14:50:31;10.23;;;3.28;;
39698;SDS011;25372;50.582;12.250;2023-03-03T15:01:11;7.20;;;2.70;;
39698;SDS011;25372;50.582;12.250;2023-03-03T15:11:39;8.75;;;3.30;;
39698;SDS011;25372;50.582;12.250;2023-03-03T15:22:01;10.07;;;3.10;;
39698;SDS011;25372;50.582;12.250;2023-03-03T15:32:30;6.65;;;3.03;;
39698;SDS011;25372;50.582;12.250;2023-03-03T15:42:56;5.20;;;2.55;;
39698;SDS011;25372;50.582;12.250;2023-03-03T15:53:33;7.40;;;3.13;;
39698;SDS011;25372;50.582;12.250;2023-03-03T16:04:10;19.95;;;5.00;;
39698;SDS011;25372;50.582;12.250;2023-03-03T16:14:39;15.55;;;6.30;;
39698;SDS011;25372;50.582;12.250;2023-03-03T16:25:19;18.45;;;6.30;;
39698;SDS011;25372;50.582;12.250;2023-03-03T16:35:54;23.30;;;7.72;;
39698;SDS011;25372;50.582;12.250;2023-03-03T16:46:26;24.38;;;8.52;;
39698;SDS011;25372;50.582;12.250;2023-03-03T16:56:55;33.50;;;8.95;;
39698;SDS011;25372;50.582;12.250;2023-03-03T17:07:29;22.02;;;7.18;;
39698;SDS011;25372;50.582;12.250;2023-03-03T17:18:04;23.55;;;7.50;;
39698;SDS011;25372;50.582;12.250;2023-03-03T17:28:34;18.00;;;7.68;;
39698;SDS011;25372;50.582;12.250;2023-03-03T17:39:14;28.63;;;8.80;;
39698;SDS011;25372;50.582;12.250;2023-03-03T17:49:53;31.87;;;8.23;;
39698;SDS011;25372;50.582;12.250;2023-03-03T18:00:29;30.70;;;9.52;;
39698;SDS011;25372;50.582;12.250;2023-03-03T18:11:01;27.70;;;9.40;;
39698;SDS011;25372;50.582;12.250;2023-03-03T18:21:38;25.52;;;9.15;;
39698;SDS011;25372;50.582;12.250;2023-03-03T18:42:42;32.03;;;9.80;;
39698;SDS011;25372;50.582;12.250;2023-03-03T19:03:34;29.48;;;7.45;;
39698;SDS011;25372;50.582;12.250;2023-03-03T19:14:10;24.83;;;8.95;;
39698;SDS011;25372;50.582;12.250;2023-03-03T19:24:35;31.52;;;8.95;;
39698;SDS011;25372;50.582;12.250;2023-03-03T19:34:59;24.63;;;6.28;;
39698;SDS011;25372;50.582;12.250;2023-03-03T19:45:40;30.77;;;7.68;;
39698;SDS011;25372;50.582;12.250;2023-03-03T19:56:22;20.40;;;6.68;;
39698;SDS011;25372;50.582;12.250;2023-03-03T20:06:55;28.48;;;7.20;;
39698;SDS011;25372;50.582;12.250;2023-03-03T20:17:30;39.78;;;7.75;;
39698;SDS011;25372;50.582;12.250;2023-03-03T20:28:02;36.05;;;8.75;;
39698;SDS011;25372;50.582;12.250;2023-03-03T20:38:34;16.90;;;7.43;;
39698;SDS011;25372;50.582;12.250;2023-03-03T20:49:10;21.55;;;5.80;;
39698;SDS011;25372;50.582;12.250;2023-03-03T20:59:43;31.92;;;8.38;;
39698;SDS011;25372;50.582;12.250;2023-03-03T21:10:15;37.40;;;8.15;;
39698;SDS011;25372;50.582;12.250;2023-03-03T21:20:42;24.33;;;7.43;;
39698;SDS011;25372;50.582;12.250;2023-03-03T21:31:09;27.88;;;9.30;;
39698;SDS011;25372;50.582;12.250;2023-03-03T21:52:12;31.75;;;8.35;;
39698;SDS011;25372;50.582;12.250;2023-03-03T22:02:34;31.00;;;8.95;;
39698;SDS011;25372;50.582;12.250;2023-03-03T22:12:57;34.22;;;9.68;;
39698;SDS011;25372;50.582;12.250;2023-03-03T22:23:17;35.42;;;10.05;;
39698;SDS011;25372;50.582;12.250;2023-03-03T22:33:39;36.95;;;10.85;;
39698;SDS011;25372;50.582;12.250;2023-03-03T22:44:00;32.65;;;8.27;;
39698;SDS011;25372;50.582;12.250;2023-03-03T22:54:22;40.88;;;8.77;;
39698;SDS011;25372;50.582;12.250;2023-03-03T23:04:43;27.25;;;8.68;;
39698;SDS011;25372;50.582;12.250;2023-03-03T23:15:06;24.35;;;8.40;;
39698;SDS011;25372;50.582;12.250;2023-03-03T23:25:31;27.83;;;7.90;;
39698;SDS011;25372;50.582;12.250;2023-03-03T23:35:54;25.67;;;8.63;;
39698;SDS011;25372;50.582;12.250;2023-03-03T23:46:14;30.35;;;8.68;;
39698;SDS011;25372;50.582;12.250;2023-03-03T23:56:36;19.45;;;7.55;;
